createdAt,value
2022-09-28T00:01:41.782Z,99453.22
2022-09-28T00:06:43.468Z,99456.81
2022-09-28T00:11:45.927Z,99446.69
2022-09-28T00:16:48.608Z,99442.22
2022-09-28T00:21:50.302Z,99442.59
2022-09-28T00:26:56.961Z,99437.09
2022-09-28T00:32:02.922Z,99433.09
2022-09-28T00:37:06.371Z,99438.13
2022-09-28T00:42:16.506Z,99435.50
2022-09-28T00:47:31.594Z,99425.81
2022-09-28T00:52:39.285Z,99434.47
2022-09-28T00:57:46.901Z,99429.84
2022-09-28T01:02:48.435Z,99433.13
2022-09-28T01:07:50.809Z,99422.78
2022-09-28T01:12:52.266Z,99413.91
2022-09-28T01:18:15.005Z,99419.75
2022-09-28T01:23:49.001Z,99412.75
2022-09-28T01:28:59.323Z,99421.78
2022-09-28T01:34:11.386Z,99418.38
2022-09-28T01:39:37.354Z,99414.88
2022-09-28T01:44:43.327Z,99414.16
2022-09-28T01:49:53.520Z,99417.41
2022-09-28T01:55:25.796Z,99421.06
2022-09-28T02:00:28.169Z,99412.66
2022-09-28T02:05:34.141Z,99416.44
2022-09-28T02:10:48.689Z,99425.97
2022-09-28T02:16:02.414Z,99424.19
2022-09-28T02:21:26.976Z,99416.06
2022-09-28T02:26:35.314Z,99414.69
2022-09-28T02:31:36.795Z,99425.72
2022-09-28T02:36:38.463Z,99422.41
2022-09-28T02:41:55.877Z,99423.34
2022-09-28T02:47:09.704Z,99417.06
2022-09-28T02:52:35.725Z,99413.84
2022-09-28T02:57:55.933Z,99416.06
2022-09-28T03:03:07.494Z,99421.16
2022-09-28T03:08:22.726Z,99422.94
2022-09-28T03:13:26.001Z,99422.31
2022-09-28T03:18:27.456Z,99417.88
2022-09-28T03:23:28.984Z,99421.47
2022-09-28T03:28:30.488Z,99417.34
2022-09-28T03:33:32.218Z,99414.56
2022-09-28T03:38:33.746Z,99410.97
2022-09-28T03:43:35.524Z,99401.94
2022-09-28T03:48:37.088Z,99398.50
2022-09-28T03:53:39.707Z,99405.59
2022-09-28T03:58:41.172Z,99394.94
2022-09-28T04:03:43.137Z,99393.63
2022-09-28T04:08:44.609Z,99393.69
2022-09-28T04:13:49.809Z,99394.78
2022-09-28T04:18:51.380Z,99395.81
2022-09-28T04:23:53.228Z,99400.34
2022-09-28T04:29:13.159Z,99403.50
2022-09-28T04:34:17.435Z,99410.34
2022-09-28T04:39:19.522Z,99404.88
2022-09-28T04:44:21.207Z,99406.59
2022-09-28T04:49:24.421Z,99408.72
2022-09-28T04:54:25.919Z,99406.31
2022-09-28T04:59:27.325Z,99406.19
2022-09-28T05:04:29.005Z,99409.44
2022-09-28T05:09:33.005Z,99407.75
2022-09-28T05:14:36.495Z,99406.84
2022-09-28T05:19:38.348Z,99410.22
2022-09-28T05:24:39.852Z,99407.56
2022-09-28T05:29:41.305Z,99417.56
2022-09-28T05:34:43.157Z,99402.22
2022-09-28T05:39:44.734Z,99410.22
2022-09-28T05:44:46.281Z,99402.44
2022-09-28T05:49:47.925Z,99407.94
2022-09-28T05:54:49.608Z,99396.88
2022-09-28T05:59:51.228Z,99404.50
2022-09-28T06:04:53.736Z,99409.44
2022-09-28T06:09:55.140Z,99410.22
2022-09-28T06:14:58.556Z,99407.75
2022-09-28T06:20:00.182Z,99408.78
2022-09-28T06:25:01.740Z,99418.34
2022-09-28T06:30:03.909Z,99422.44
2022-09-28T06:35:06.301Z,99422.44
2022-09-28T06:40:08.311Z,99425.69
2022-09-28T06:45:11.351Z,99434.28
2022-09-28T06:50:14.579Z,99435.97
2022-09-28T06:55:16.036Z,99440.78
2022-09-28T07:00:17.518Z,99447.00
2022-09-28T07:05:19.938Z,99450.25
2022-09-28T07:10:27.754Z,99446.31
2022-09-28T07:15:30.212Z,99449.97
2022-09-28T07:20:49.021Z,99446.78
2022-09-28T07:25:54.852Z,99454.06
2022-09-28T07:30:57.475Z,99470.25
2022-09-28T07:36:00.929Z,99472.63
2022-09-28T07:41:16.837Z,99474.81
2022-09-28T07:46:18.368Z,99484.50
2022-09-28T07:51:21.254Z,99492.31
2022-09-28T07:56:23.356Z,99493.75
2022-09-28T08:01:24.932Z,99502.63
2022-09-28T08:06:26.351Z,99500.53
2022-09-28T08:11:27.746Z,99505.75
2022-09-28T08:16:30.345Z,99504.78
2022-09-28T08:21:47.209Z,99509.50
2022-09-28T08:26:49.364Z,99513.78
2022-09-28T08:31:50.878Z,99512.81
2022-09-28T08:36:53.195Z,99509.00
2022-09-28T08:42:13.321Z,99515.44
2022-09-28T08:47:49.673Z,99516.09
2022-09-28T08:52:56.249Z,99515.84
2022-09-28T08:58:13.955Z,99518.72
2022-09-28T09:03:20.597Z,99525.22
2022-09-28T09:08:47.866Z,99525.75
2022-09-28T09:14:08.871Z,99526.75
2022-09-28T09:19:26.307Z,99532.78
2022-09-28T09:24:52.033Z,99532.28
2022-09-28T09:30:03.168Z,99538.16
2022-09-28T09:35:25.515Z,99543.16
2022-09-28T09:40:57.458Z,99547.63
2022-09-28T09:46:17.951Z,99552.56
2022-09-28T09:51:24.809Z,99552.97
2022-09-28T09:56:34.540Z,99545.31
2022-09-28T10:01:38.906Z,99547.22
2022-09-28T10:06:42.413Z,99546.28
2022-09-28T10:11:47.592Z,99543.56
2022-09-28T10:16:51.060Z,99552.47
2022-09-28T10:21:53.250Z,99550.47
2022-09-28T10:26:58.168Z,99548.78
2022-09-28T10:31:59.666Z,99550.06
2022-09-28T10:37:04.209Z,99563.88
2022-09-28T10:42:11.556Z,99560.22
2022-09-28T10:47:18.146Z,99561.22
2022-09-28T10:52:36.253Z,99552.41
2022-09-28T10:57:37.679Z,99562.91
2022-09-28T11:02:40.770Z,99562.63
2022-09-28T11:07:47.204Z,99576.38
2022-09-28T11:12:50.062Z,99571.34
2022-09-28T11:17:51.849Z,99565.78
2022-09-28T11:22:59.347Z,99583.34
2022-09-28T11:28:04.385Z,99570.69
2022-09-28T11:33:20.022Z,99581.13
2022-09-28T11:38:34.082Z,99584.59
2022-09-28T11:44:00.467Z,99591.38
2022-09-28T11:49:11.335Z,99589.19
2022-09-28T11:54:21.982Z,99583.25
2022-09-28T11:59:34.332Z,99580.88
2022-09-28T12:04:39.095Z,99588.88
2022-09-28T12:09:43.961Z,99577.72
2022-09-28T12:14:47.392Z,99584.16
2022-09-28T12:19:55.407Z,99586.13
2022-09-28T12:24:58.424Z,99580.50
2022-09-28T12:30:32.033Z,99590.81
2022-09-28T12:35:36.192Z,99583.69
2022-09-28T12:40:54.579Z,99591.09
2022-09-28T12:46:12.024Z,99584.91
2022-09-28T12:51:52.854Z,99583.72
2022-09-28T12:57:05.601Z,99580.53
2022-09-28T13:02:26.611Z,99579.91
2022-09-28T13:07:56.105Z,99584.50
2022-09-28T13:13:16.338Z,99585.88
2022-09-28T13:18:38.932Z,99576.50
2022-09-28T13:23:46.380Z,99593.06
2022-09-28T13:28:51.325Z,99607.13
2022-09-28T13:33:53.597Z,99595.63
2022-09-28T13:38:57.120Z,99601.38
2022-09-28T13:44:11.034Z,99604.69
2022-09-28T13:49:18.670Z,99603.22
2022-09-28T13:54:26.267Z,99608.66
2022-09-28T13:59:29.812Z,99603.19
2022-09-28T14:05:26.399Z,99604.50
2022-09-28T14:10:51.846Z,99606.63
2022-09-28T14:15:53.483Z,99608.94
2022-09-28T14:21:24.978Z,99601.00
2022-09-28T14:26:51.132Z,99630.47
2022-09-28T14:31:52.772Z,99625.38
2022-09-28T14:37:13.161Z,99626.31
2022-09-28T14:42:18.887Z,99624.38
2022-09-28T14:47:43.097Z,99630.53
2022-09-28T14:52:53.473Z,99638.59
2022-09-28T14:57:58.375Z,99646.34
2022-09-28T15:03:05.966Z,99645.09
2022-09-28T15:08:11.861Z,99645.81
2022-09-28T15:13:25.653Z,99644.16
2022-09-28T15:18:45.794Z,99648.19
2022-09-28T15:23:48.129Z,99654.91
2022-09-28T15:28:49.815Z,99666.19
2022-09-28T15:34:10.635Z,99665.56
2022-09-28T15:39:25.214Z,99672.81
2022-09-28T15:44:32.975Z,99672.75
2022-09-28T15:49:53.177Z,99668.06
2022-09-28T15:54:55.707Z,99667.25
2022-09-28T15:59:59.125Z,99672.53
2022-09-28T16:05:02.313Z,99674.16
2022-09-28T16:10:12.876Z,99678.44
2022-09-28T16:15:21.807Z,99678.13
2022-09-28T16:20:32.002Z,99679.97
2022-09-28T16:25:37.406Z,99675.31
2022-09-28T16:31:00.527Z,99672.81
2022-09-28T16:36:03.307Z,99670.63
2022-09-28T16:41:05.932Z,99677.19
2022-09-28T16:46:13.348Z,99686.28
2022-09-28T16:51:19.543Z,99681.06
2022-09-28T16:56:21.674Z,99686.06
2022-09-28T17:01:24.242Z,99683.19
2022-09-28T17:06:26.965Z,99690.91
2022-09-28T17:11:28.629Z,99702.78
2022-09-28T17:16:57.652Z,99698.97
2022-09-28T17:21:54.030Z,99699.06
2022-09-28T17:26:55.770Z,99707.22
2022-09-28T17:31:57.234Z,99711.81
2022-09-28T17:36:58.744Z,99725.75
2022-09-28T17:42:00.363Z,99722.41
2022-09-28T17:47:01.965Z,99715.78
2022-09-28T17:52:05.408Z,99718.50
2022-09-28T17:57:08.796Z,99723.53
2022-09-28T18:02:11.204Z,99715.25
2022-09-28T18:07:12.666Z,99730.16
2022-09-28T18:12:14.261Z,99727.56
2022-09-28T18:17:16.039Z,99733.28
2022-09-28T18:22:17.583Z,99730.03
2022-09-28T18:27:19.077Z,99748.56
2022-09-28T18:32:20.529Z,99737.50
2022-09-28T18:37:21.956Z,99753.19
2022-09-28T18:42:23.519Z,99752.59
2022-09-28T18:47:25.502Z,99761.34
2022-09-28T18:52:27.565Z,99759.81
2022-09-28T18:57:29.011Z,99765.19
2022-09-28T19:02:32.003Z,99767.78
2022-09-28T19:07:34.217Z,99774.75
2022-09-28T19:12:35.890Z,99779.44
2022-09-28T19:17:37.595Z,99778.81
2022-09-28T19:22:39.126Z,99773.22
2022-09-28T19:27:40.647Z,99783.84
2022-09-28T19:32:42.808Z,99779.56
2022-09-28T19:37:46.571Z,99782.22
2022-09-28T19:42:47.965Z,99787.44
2022-09-28T19:47:49.451Z,99792.03
2022-09-28T19:52:52.381Z,99784.47
2022-09-28T19:57:55.366Z,99784.75
2022-09-28T20:02:58.264Z,99801.06
2022-09-28T20:07:59.758Z,99797.81
2022-09-28T20:13:01.242Z,99801.47
2022-09-28T20:18:02.671Z,99802.41
2022-09-28T20:23:04.620Z,99802.53
2022-09-28T20:28:06.043Z,99803.41
2022-09-28T20:33:07.823Z,99810.94
2022-09-28T20:38:09.288Z,99817.63
2022-09-28T20:43:10.811Z,99815.66
2022-09-28T20:48:12.230Z,99817.31
2022-09-28T20:53:13.620Z,99815.72
2022-09-28T20:58:15.057Z,99815.78
2022-09-28T21:03:16.550Z,99812.13
2022-09-28T21:08:17.981Z,99819.75
2022-09-28T21:13:21.148Z,99811.59
2022-09-28T21:18:22.684Z,99820.06
2022-09-28T21:23:25.020Z,99826.84
2022-09-28T21:28:26.685Z,99822.28
2022-09-28T21:33:28.139Z,99830.44
2022-09-28T21:38:30.048Z,99826.19
2022-09-28T21:43:31.829Z,99829.75
2022-09-28T21:48:33.457Z,99830.63
2022-09-28T21:53:37.223Z,99833.19
2022-09-28T21:58:38.677Z,99836.56
2022-09-28T22:03:41.587Z,99844.53
2022-09-28T22:08:43.285Z,99837.53
2022-09-28T22:13:49.859Z,99834.13
2022-09-28T22:18:51.480Z,99846.41
2022-09-28T22:23:53.456Z,99841.41
2022-09-28T22:29:00.734Z,99842.31
2022-09-28T22:34:03.019Z,99846.94
2022-09-28T22:39:04.702Z,99847.94
2022-09-28T22:44:06.216Z,99847.94
2022-09-28T22:49:10.020Z,99854.13
2022-09-28T22:54:16.372Z,99849.03
2022-09-28T22:59:17.869Z,99857.88
2022-09-28T23:04:19.357Z,99858.16
2022-09-28T23:09:20.764Z,99856.66
2022-09-28T23:14:22.685Z,99858.59
2022-09-28T23:19:24.133Z,99863.84
2022-09-28T23:24:25.715Z,99869.81
2022-09-28T23:29:27.153Z,99870.56
2022-09-28T23:34:28.568Z,99872.25
2022-09-28T23:39:30.096Z,99862.03
2022-09-28T23:44:32.639Z,99861.19
2022-09-28T23:49:34.044Z,99872.41
2022-09-28T23:54:35.512Z,99871.78
2022-09-28T23:59:36.923Z,99876.16
